createdAt,value
2022-10-11T00:02:04.289Z,9.23
2022-10-11T00:04:52.997Z,5.30
2022-10-11T00:07:38.740Z,6.50
2022-10-11T00:10:25.070Z,8.00
2022-10-11T00:13:10.873Z,7.80
2022-10-11T00:15:57.121Z,9.15
2022-10-11T00:18:42.697Z,7.72
2022-10-11T00:21:28.063Z,4.38
2022-10-11T00:24:16.026Z,8.65
2022-10-11T00:27:01.806Z,5.90
2022-10-11T00:29:47.214Z,6.32
2022-10-11T00:32:34.434Z,8.40
2022-10-11T00:35:20.059Z,6.78
2022-10-11T00:38:05.344Z,8.48
2022-10-11T00:40:50.935Z,6.22
2022-10-11T00:43:37.120Z,5.78
2022-10-11T00:46:28.457Z,8.65
2022-10-11T00:49:21.361Z,7.18
2022-10-11T00:52:31.942Z,6.93
2022-10-11T00:55:20.347Z,7.85
2022-10-11T00:58:06.940Z,5.68
2022-10-11T01:00:53.266Z,7.63
2022-10-11T01:03:39.196Z,6.85
2022-10-11T01:06:25.031Z,4.47
2022-10-11T01:09:12.175Z,4.03
2022-10-11T01:12:01.252Z,5.65
2022-10-11T01:14:56.275Z,5.37
2022-10-11T01:17:53.951Z,6.38
2022-10-11T01:21:17.467Z,4.95
2022-10-11T01:24:21.266Z,7.57
2022-10-11T01:27:28.295Z,6.60
2022-10-11T01:30:30.085Z,7.25
2022-10-11T01:33:19.019Z,6.03
2022-10-11T01:36:43.049Z,8.27
2022-10-11T01:39:36.670Z,6.00
2022-10-11T01:42:23.461Z,6.47
2022-10-11T01:45:13.986Z,5.00
2022-10-11T01:48:11.434Z,5.53
2022-10-11T01:50:58.788Z,6.72
2022-10-11T01:54:04.338Z,5.13
2022-10-11T01:56:58.923Z,7.97
2022-10-11T02:00:05.778Z,7.00
2022-10-11T02:03:34.079Z,7.28
2022-10-11T02:06:43.768Z,10.27
2022-10-11T02:09:35.592Z,6.38
2022-10-11T02:12:32.223Z,6.20
2022-10-11T02:15:20.716Z,6.18
2022-10-11T02:18:11.634Z,8.75
2022-10-11T02:21:00.699Z,5.55
2022-10-11T02:23:58.988Z,8.17
2022-10-11T02:26:48.996Z,7.57
2022-10-11T02:29:37.923Z,5.78
2022-10-11T02:32:25.567Z,6.35
2022-10-11T02:35:12.348Z,8.23
2022-10-11T02:38:05.627Z,9.25
2022-10-11T02:40:57.798Z,6.85
2022-10-11T02:43:49.384Z,6.63
2022-10-11T02:46:35.930Z,8.13
2022-10-11T02:49:21.918Z,7.13
2022-10-11T02:52:07.606Z,7.40
2022-10-11T02:54:53.253Z,8.05
2022-10-11T02:57:38.757Z,4.32
2022-10-11T03:00:25.168Z,5.97
2022-10-11T03:03:10.510Z,6.40
2022-10-11T03:06:04.439Z,7.32
2022-10-11T03:08:50.221Z,5.82
2022-10-11T03:11:35.935Z,5.60
2022-10-11T03:14:21.498Z,5.43
2022-10-11T03:17:31.088Z,6.15
2022-10-11T03:20:12.819Z,9.43
2022-10-11T03:22:58.429Z,4.65
2022-10-11T03:25:45.584Z,6.82
2022-10-11T03:28:31.535Z,6.78
2022-10-11T03:31:18.578Z,5.43
2022-10-11T03:34:04.196Z,5.38
2022-10-11T03:36:49.656Z,6.78
2022-10-11T03:39:35.265Z,7.97
2022-10-11T03:42:20.886Z,7.03
2022-10-11T03:45:08.880Z,7.00
2022-10-11T03:47:54.459Z,4.25
2022-10-11T03:50:40.340Z,5.50
2022-10-11T03:53:26.066Z,8.63
2022-10-11T03:56:12.059Z,5.43
2022-10-11T03:58:58.031Z,5.85
2022-10-11T04:01:43.623Z,5.63
2022-10-11T04:04:29.009Z,5.82
2022-10-11T04:07:14.550Z,6.75
2022-10-11T04:10:00.368Z,5.65
2022-10-11T04:12:48.071Z,11.35
2022-10-11T04:15:33.807Z,5.80
2022-10-11T04:18:19.750Z,9.98
2022-10-11T04:21:05.483Z,7.05
2022-10-11T04:23:51.143Z,8.05
2022-10-11T04:26:36.824Z,7.47
2022-10-11T04:29:22.556Z,8.75
2022-10-11T04:32:09.330Z,6.53
2022-10-11T04:34:55.177Z,7.38
2022-10-11T04:37:40.654Z,9.27
2022-10-11T04:40:26.248Z,7.82
2022-10-11T04:43:11.777Z,6.13
2022-10-11T04:45:57.521Z,7.80
2022-10-11T04:48:43.176Z,5.30
2022-10-11T04:51:29.026Z,6.30
2022-10-11T04:54:15.234Z,9.27
2022-10-11T04:57:00.749Z,6.85
2022-10-11T04:59:49.991Z,5.53
2022-10-11T05:02:35.976Z,7.68
2022-10-11T05:05:21.588Z,8.27
2022-10-11T05:08:07.047Z,6.00
2022-10-11T05:11:01.708Z,8.85
2022-10-11T05:13:47.488Z,7.80
2022-10-11T05:16:33.324Z,10.20
2022-10-11T05:19:18.953Z,12.45
2022-10-11T05:22:04.543Z,7.28
2022-10-11T05:24:49.911Z,6.13
2022-10-11T05:27:35.676Z,8.32
2022-10-11T05:30:24.091Z,5.65
2022-10-11T05:33:09.642Z,10.68
2022-10-11T05:35:55.602Z,5.72
2022-10-11T05:38:41.406Z,12.57
2022-10-11T05:41:27.245Z,7.22
2022-10-11T05:44:12.932Z,7.82
2022-10-11T05:46:58.408Z,8.05
2022-10-11T05:49:44.060Z,9.18
2022-10-11T05:52:30.407Z,8.95
2022-10-11T05:55:16.134Z,9.88
2022-10-11T05:58:01.782Z,6.60
2022-10-11T06:00:47.385Z,7.32
2022-10-11T06:03:32.856Z,10.25
2022-10-11T06:06:19.432Z,7.82
2022-10-11T06:09:04.881Z,9.75
2022-10-11T06:11:50.641Z,6.80
2022-10-11T06:14:36.068Z,9.50
2022-10-11T06:17:22.502Z,8.15
2022-10-11T06:20:08.299Z,10.40
2022-10-11T06:22:54.006Z,6.85
2022-10-11T06:25:39.404Z,11.65
2022-10-11T06:28:27.400Z,10.23
2022-10-11T06:31:13.450Z,8.73
2022-10-11T06:33:59.784Z,12.38
2022-10-11T06:36:45.512Z,10.93
2022-10-11T06:39:30.985Z,9.60
2022-10-11T06:42:17.092Z,11.63
2022-10-11T06:45:02.758Z,9.38
2022-10-11T06:47:48.556Z,9.63
2022-10-11T06:50:57.947Z,10.27
2022-10-11T06:53:39.885Z,8.48
2022-10-11T06:56:28.418Z,9.82
2022-10-11T06:59:15.009Z,8.25
2022-10-11T07:02:00.864Z,11.30
2022-10-11T07:04:46.369Z,6.95
2022-10-11T07:07:32.112Z,7.40
2022-10-11T07:10:17.715Z,8.82
2022-10-11T07:13:03.305Z,11.10
2022-10-11T07:15:49.072Z,8.93
2022-10-11T07:18:34.529Z,9.57
2022-10-11T07:21:20.144Z,6.43
2022-10-11T07:24:06.046Z,12.38
2022-10-11T07:26:51.485Z,6.20
2022-10-11T07:29:36.910Z,9.07
2022-10-11T07:32:22.453Z,7.10
2022-10-11T07:35:08.235Z,9.07
2022-10-11T07:37:53.958Z,10.40
2022-10-11T07:40:45.159Z,7.72
2022-10-11T07:43:30.802Z,9.35
2022-10-11T07:46:17.620Z,9.73
2022-10-11T07:49:02.867Z,7.95
2022-10-11T07:51:48.462Z,14.25
2022-10-11T07:54:34.125Z,7.10
2022-10-11T07:57:19.686Z,8.23
2022-10-11T08:00:06.252Z,10.40
2022-10-11T08:02:57.684Z,10.02
2022-10-11T08:05:44.293Z,10.70
2022-10-11T08:08:31.157Z,7.72
2022-10-11T08:11:31.702Z,10.32
2022-10-11T08:14:18.257Z,8.48
2022-10-11T08:17:03.956Z,10.20
2022-10-11T08:19:49.613Z,11.55
2022-10-11T08:22:35.465Z,10.25
2022-10-11T08:25:21.195Z,11.88
2022-10-11T08:28:07.384Z,10.20
2022-10-11T08:30:54.411Z,7.60
2022-10-11T08:33:40.086Z,10.27
2022-10-11T08:36:25.792Z,13.68
2022-10-11T08:39:11.735Z,12.52
2022-10-11T08:42:05.096Z,14.10
2022-10-11T08:45:10.557Z,13.27
2022-10-11T08:48:06.108Z,14.38
2022-10-11T08:50:54.364Z,14.10
2022-10-11T08:53:45.592Z,13.02
2022-10-11T08:56:35.328Z,16.42
2022-10-11T08:59:30.280Z,9.90
2022-10-11T09:02:49.193Z,12.68
2022-10-11T09:05:57.546Z,13.88
2022-10-11T09:08:42.809Z,11.27
2022-10-11T09:12:16.538Z,10.98
2022-10-11T09:15:41.539Z,12.40
2022-10-11T09:19:03.557Z,12.43
2022-10-11T09:22:03.841Z,9.43
2022-10-11T09:25:17.903Z,10.27
2022-10-11T09:28:35.535Z,8.02
2022-10-11T09:31:23.286Z,10.18
2022-10-11T09:34:14.450Z,12.18
2022-10-11T09:37:11.453Z,9.38
2022-10-11T09:40:18.115Z,10.07
2022-10-11T09:43:03.373Z,11.55
2022-10-11T09:45:49.801Z,13.70
2022-10-11T09:48:41.280Z,17.13
2022-10-11T09:51:28.624Z,17.35
2022-10-11T09:54:14.515Z,15.60
2022-10-11T09:57:00.185Z,16.63
2022-10-11T10:00:03.276Z,16.52
2022-10-11T10:02:59.142Z,15.60
2022-10-11T10:05:44.665Z,15.90
2022-10-11T10:08:30.257Z,15.32
2022-10-11T10:11:16.310Z,15.93
2022-10-11T10:14:02.163Z,21.30
2022-10-11T10:16:47.900Z,19.15
2022-10-11T10:19:44.671Z,17.77
2022-10-11T10:22:34.856Z,17.30
2022-10-11T10:25:25.800Z,17.42
2022-10-11T10:28:37.714Z,18.05
2022-10-11T10:35:22.631Z,20.50
2022-10-11T10:38:51.888Z,22.58
2022-10-11T10:41:37.661Z,20.88
2022-10-11T10:44:23.328Z,19.83
2022-10-11T10:47:20.927Z,20.60
2022-10-11T10:50:17.928Z,19.20
2022-10-11T10:53:21.517Z,18.00
2022-10-11T10:56:24.853Z,22.45
2022-10-11T10:59:42.324Z,18.67
2022-10-11T11:02:41.315Z,20.42
2022-10-11T11:05:54.067Z,18.33
2022-10-11T11:08:45.315Z,16.67
2022-10-11T11:11:52.050Z,20.25
2022-10-11T11:14:52.710Z,15.90
2022-10-11T11:17:47.422Z,16.90
2022-10-11T11:20:53.888Z,13.48
2022-10-11T11:24:13.589Z,14.27
2022-10-11T11:27:14.457Z,12.43
2022-10-11T11:30:16.401Z,12.95
2022-10-11T11:33:22.312Z,11.57
2022-10-11T11:36:41.716Z,12.68
2022-10-11T11:39:35.764Z,13.88
2022-10-11T11:42:43.993Z,11.57
2022-10-11T11:45:41.987Z,9.63
2022-10-11T11:48:27.621Z,14.93
2022-10-11T11:51:27.785Z,9.63
2022-10-11T11:54:30.323Z,11.05
2022-10-11T11:57:27.112Z,9.45
2022-10-11T12:00:23.184Z,13.02
2022-10-11T12:03:17.019Z,10.02
2022-10-11T12:06:14.837Z,9.38
2022-10-11T12:09:17.958Z,10.07
2022-10-11T12:12:09.266Z,9.32
2022-10-11T12:15:10.135Z,14.65
2022-10-11T12:17:55.900Z,9.52
2022-10-11T12:20:42.980Z,9.55
2022-10-11T12:23:28.969Z,12.77
2022-10-11T12:26:30.486Z,11.65
2022-10-11T12:29:20.759Z,12.00
2022-10-11T12:32:10.860Z,7.57
2022-10-11T12:35:30.857Z,11.18
2022-10-11T12:38:22.581Z,9.32
2022-10-11T12:41:11.106Z,9.73
2022-10-11T12:44:15.039Z,9.50
2022-10-11T12:47:32.712Z,9.70
2022-10-11T12:50:28.005Z,9.93
2022-10-11T12:53:50.637Z,8.70
2022-10-11T12:59:47.810Z,11.68
2022-10-11T13:02:42.509Z,12.20
2022-10-11T13:05:48.687Z,8.52
2022-10-11T13:08:40.206Z,10.30
2022-10-11T13:11:32.316Z,9.48
2022-10-11T13:14:29.458Z,10.48
2022-10-11T13:17:17.006Z,9.68
2022-10-11T13:20:26.599Z,12.82
2022-10-11T13:23:20.657Z,8.95
2022-10-11T13:26:06.527Z,10.38
2022-10-11T13:28:52.285Z,14.20
2022-10-11T13:31:40.713Z,15.57
2022-10-11T13:34:30.602Z,9.25
2022-10-11T13:37:23.149Z,11.38
2022-10-11T13:40:15.002Z,9.77
2022-10-11T13:43:00.911Z,11.48
2022-10-11T13:45:47.087Z,9.07
2022-10-11T13:48:39.880Z,8.98
2022-10-11T13:51:36.001Z,11.48
2022-10-11T13:54:21.558Z,10.38
2022-10-11T13:57:13.329Z,8.88
2022-10-11T13:59:59.062Z,9.30
2022-10-11T14:02:54.694Z,6.45
2022-10-11T14:05:52.276Z,10.98
2022-10-11T14:08:44.537Z,13.30
2022-10-11T14:11:39.656Z,8.38
2022-10-11T14:14:35.279Z,13.65
2022-10-11T14:17:24.644Z,6.80
2022-10-11T14:20:23.467Z,8.50
2022-10-11T14:23:09.122Z,8.93
2022-10-11T14:25:54.484Z,8.13
2022-10-11T14:28:40.592Z,12.20
2022-10-11T14:31:26.968Z,12.73
2022-10-11T14:34:21.565Z,8.13
2022-10-11T14:37:07.312Z,7.75
2022-10-11T14:39:52.865Z,8.95
2022-10-11T14:42:38.342Z,8.63
2022-10-11T14:45:24.128Z,8.02
2022-10-11T14:48:09.377Z,10.77
2022-10-11T14:50:59.292Z,10.25
2022-10-11T14:53:46.394Z,12.65
2022-10-11T14:56:32.016Z,12.27
2022-10-11T14:59:21.215Z,12.32
2022-10-11T15:02:08.674Z,11.90
2022-10-11T15:04:54.009Z,12.63
2022-10-11T15:07:39.473Z,9.50
2022-10-11T15:10:27.817Z,9.45
2022-10-11T15:13:13.048Z,8.80
2022-10-11T15:15:58.573Z,10.02
2022-10-11T15:18:44.370Z,11.52
2022-10-11T15:21:30.311Z,10.80
2022-10-11T15:24:16.335Z,8.25
2022-10-11T15:27:02.073Z,10.00
2022-10-11T15:29:47.618Z,10.27
2022-10-11T15:32:33.101Z,8.55
2022-10-11T15:35:19.843Z,8.70
2022-10-11T15:38:05.587Z,10.07
2022-10-11T15:40:51.972Z,11.82
2022-10-11T15:43:37.549Z,10.23
2022-10-11T15:46:23.605Z,9.55
2022-10-11T15:49:13.455Z,12.30
2022-10-11T15:51:58.982Z,11.32
2022-10-11T15:54:44.546Z,13.07
2022-10-11T15:57:30.119Z,8.45
2022-10-11T16:00:21.265Z,10.40
2022-10-11T16:03:07.793Z,9.07
2022-10-11T16:05:54.635Z,9.10
2022-10-11T16:08:40.541Z,10.90
2022-10-11T16:11:26.250Z,8.82
2022-10-11T16:14:11.997Z,7.60
2022-10-11T16:17:04.739Z,12.77
2022-10-11T16:19:51.570Z,9.98
2022-10-11T16:22:36.958Z,10.20
2022-10-11T16:25:22.660Z,9.50
2022-10-11T16:28:08.968Z,9.80
2022-10-11T16:30:54.915Z,9.02
2022-10-11T16:33:45.879Z,9.18
2022-10-11T16:36:31.883Z,9.05
2022-10-11T16:39:18.476Z,9.80
2022-10-11T16:42:03.912Z,7.57
2022-10-11T16:44:49.739Z,8.02
2022-10-11T16:47:35.274Z,10.43
2022-10-11T16:50:20.862Z,12.18
2022-10-11T16:53:06.552Z,10.05
2022-10-11T16:55:52.311Z,11.52
2022-10-11T16:58:38.014Z,11.07
2022-10-11T17:01:23.668Z,10.75
2022-10-11T17:04:09.773Z,9.45
2022-10-11T17:06:56.373Z,13.10
2022-10-11T17:09:44.294Z,14.35
2022-10-11T17:12:31.996Z,10.75
2022-10-11T17:15:17.782Z,11.75
2022-10-11T17:18:03.579Z,10.57
2022-10-11T17:20:49.699Z,10.32
2022-10-11T17:23:36.274Z,10.80
2022-10-11T17:26:26.227Z,7.97
2022-10-11T17:31:58.759Z,9.75
2022-10-11T17:34:44.195Z,10.85
2022-10-11T17:37:29.683Z,8.90
2022-10-11T17:40:15.713Z,10.55
2022-10-11T17:43:01.169Z,12.07
2022-10-11T17:45:55.285Z,10.32
2022-10-11T17:48:41.594Z,8.88
2022-10-11T17:51:27.440Z,8.10
2022-10-11T17:54:13.422Z,12.20
2022-10-11T17:56:59.019Z,10.00
2022-10-11T17:59:44.584Z,10.63
2022-10-11T18:02:30.386Z,7.97
2022-10-11T18:05:17.618Z,11.48
2022-10-11T18:08:02.968Z,11.05
2022-10-11T18:10:48.621Z,10.57
2022-10-11T18:13:34.295Z,8.95
2022-10-11T18:16:22.641Z,10.77
2022-10-11T18:19:11.054Z,9.85
2022-10-11T18:21:56.722Z,9.60
2022-10-11T18:24:42.315Z,8.63
2022-10-11T18:27:28.613Z,9.20
2022-10-11T18:30:17.085Z,9.90
2022-10-11T18:33:02.559Z,14.75
2022-10-11T18:35:48.149Z,11.80
2022-10-11T18:38:34.798Z,14.63
2022-10-11T18:41:42.880Z,11.23
2022-10-11T18:44:37.177Z,10.48
2022-10-11T18:47:22.786Z,10.13
2022-10-11T18:50:09.695Z,11.32
2022-10-11T18:52:55.445Z,13.85
2022-10-11T18:55:40.928Z,12.57
2022-10-11T18:58:26.847Z,15.02
2022-10-11T19:01:16.195Z,12.35
2022-10-11T19:04:05.931Z,12.45
2022-10-11T19:06:55.758Z,11.55
2022-10-11T19:09:41.385Z,12.52
2022-10-11T19:12:27.036Z,9.90
2022-10-11T19:15:16.548Z,13.45
2022-10-11T19:18:02.187Z,11.52
2022-10-11T19:20:48.222Z,13.88
2022-10-11T19:23:39.868Z,16.60
2022-10-11T19:26:33.661Z,11.70
2022-10-11T19:29:25.493Z,11.57
2022-10-11T19:32:11.238Z,11.35
2022-10-11T19:34:56.918Z,11.70
2022-10-11T19:37:42.680Z,13.48
2022-10-11T19:40:30.325Z,10.75
2022-10-11T19:43:22.745Z,12.32
2022-10-11T19:46:12.686Z,11.55
2022-10-11T19:49:01.119Z,11.27
2022-10-11T19:51:46.847Z,15.48
2022-10-11T19:54:32.693Z,13.55
2022-10-11T19:57:18.499Z,13.55
2022-10-11T20:00:04.864Z,11.50
2022-10-11T20:02:56.988Z,11.55
2022-10-11T20:05:42.764Z,11.70
2022-10-11T20:08:31.284Z,11.65
2022-10-11T20:11:21.155Z,12.82
2022-10-11T20:14:06.883Z,12.70
2022-10-11T20:16:52.518Z,11.85
2022-10-11T20:19:39.141Z,13.95
2022-10-11T20:22:24.662Z,14.13
2022-10-11T20:25:10.447Z,21.38
2022-10-11T20:27:56.306Z,13.85
2022-10-11T20:30:45.442Z,13.43
2022-10-11T20:33:32.813Z,15.02
2022-10-11T20:36:21.137Z,16.00
2022-10-11T20:39:09.174Z,13.40
2022-10-11T20:41:55.331Z,13.18
2022-10-11T20:44:41.241Z,14.32
2022-10-11T20:47:26.953Z,15.55
2022-10-11T20:50:22.817Z,12.05
2022-10-11T20:53:11.774Z,12.43
2022-10-11T20:55:59.562Z,13.52
2022-10-11T20:58:45.637Z,14.70
2022-10-11T21:01:34.429Z,13.35
2022-10-11T21:04:20.815Z,16.35
2022-10-11T21:07:06.438Z,15.25
2022-10-11T21:09:52.026Z,12.82
2022-10-11T21:12:37.655Z,18.20
2022-10-11T21:15:23.669Z,13.23
2022-10-11T21:18:08.901Z,15.00
2022-10-11T21:20:55.003Z,14.13
2022-10-11T21:23:41.664Z,13.18
2022-10-11T21:26:28.164Z,16.02
2022-10-11T21:29:14.113Z,14.52
2022-10-11T21:31:59.563Z,14.60
2022-10-11T21:34:45.401Z,18.40
2022-10-11T21:37:30.944Z,16.88
2022-10-11T21:40:16.608Z,14.70
2022-10-11T21:43:02.353Z,14.30
2022-10-11T21:45:47.794Z,14.23
2022-10-11T21:48:33.260Z,15.80
2022-10-11T21:51:27.338Z,15.70
2022-10-11T21:54:13.204Z,14.18
2022-10-11T21:56:58.616Z,13.77
2022-10-11T21:59:44.239Z,14.00
2022-10-11T22:02:29.850Z,13.43
2022-10-11T22:05:15.340Z,12.88
2022-10-11T22:08:01.069Z,14.32
2022-10-11T22:10:54.780Z,14.25
2022-10-11T22:13:42.098Z,13.00
2022-10-11T22:16:27.500Z,13.13
2022-10-11T22:19:13.598Z,15.18
2022-10-11T22:21:59.029Z,13.65
2022-10-11T22:24:45.304Z,14.98
2022-10-11T22:27:30.724Z,14.13
2022-10-11T22:30:17.007Z,12.52
2022-10-11T22:33:02.953Z,13.75
2022-10-11T22:35:53.140Z,16.05
2022-10-11T22:38:42.471Z,13.20
2022-10-11T22:41:28.017Z,17.10
2022-10-11T22:44:13.924Z,12.20
2022-10-11T22:46:59.453Z,13.70
2022-10-11T22:49:45.088Z,9.50
2022-10-11T22:52:30.623Z,10.88
2022-10-11T22:55:19.861Z,10.40
2022-10-11T22:58:05.742Z,10.07
2022-10-11T23:00:51.364Z,8.35
2022-10-11T23:03:37.323Z,8.85
2022-10-11T23:06:22.808Z,9.90
2022-10-11T23:09:08.446Z,11.02
2022-10-11T23:11:57.037Z,10.77
2022-10-11T23:14:42.306Z,10.38
2022-10-11T23:17:27.884Z,7.60
2022-10-11T23:20:13.373Z,8.57
2022-10-11T23:22:59.026Z,8.73
2022-10-11T23:25:44.557Z,9.65
2022-10-11T23:28:30.046Z,12.38
2022-10-11T23:31:17.650Z,8.80
2022-10-11T23:34:03.126Z,9.63
2022-10-11T23:36:48.810Z,10.52
2022-10-11T23:39:35.010Z,9.68
2022-10-11T23:42:20.498Z,8.13
2022-10-11T23:45:06.692Z,7.95
2022-10-11T23:47:52.078Z,8.70
2022-10-11T23:50:37.916Z,8.85
2022-10-11T23:53:23.333Z,6.80
2022-10-11T23:56:10.798Z,9.30
2022-10-11T23:58:56.666Z,8.38
